Time;durP1;ratioP1;P1;durP2;ratioP2;P2;SDS_P1;SDS_P2;PMS_P1;PMS_P2;Temp;Humidity;BMP_temperature;BMP_pressure;BME280_temperature;BME280_humidity;BME280_pressure;Samples;Min_cycle;Max_cycle;Signal;HPM_P1;HPM_P2
2023/01/31 00:02:36;;;;;;;18.40;7.70;;;;;;;1.03;100.00;98263.20;270767;1272;22552;-89
2023/01/31 00:08:37;;;;;;;20.70;8.50;;;;;;;0.91;100.00;98261.01;269308;1270;22239;-88
2023/01/31 00:14:39;;;;;;;20.10;7.50;;;;;;;0.83;100.00;98260.00;269618;1271;26897;-89
2023/01/31 00:20:41;;;;;;;20.20;8.70;;;;;;;0.77;100.00;98262.80;269220;1270;23790;-90
2023/01/31 00:26:43;;;;;;;16.70;9.00;;;;;;;0.74;100.00;98262.44;269114;1270;24220;-90
2023/01/31 00:32:45;;;;;;;17.50;9.00;;;;;;;0.73;100.00;98268.79;268549;1270;22540;-88
2023/01/31 00:38:48;;;;;;;15.50;7.40;;;;;;;0.73;100.00;98286.41;270087;1270;22220;-90
2023/01/31 00:44:52;;;;;;;29.40;8.50;;;;;;;0.74;100.00;98282.91;272006;1268;22561;-90
2023/01/31 00:50:54;;;;;;;17.40;8.30;;;;;;;0.76;100.00;98284.77;271448;1270;24230;-91
2023/01/31 00:56:56;;;;;;;15.90;6.80;;;;;;;0.80;100.00;98290.61;271834;1272;22336;-90
2023/01/31 01:02:58;;;;;;;17.30;7.30;;;;;;;0.80;100.00;98292.83;271062;1272;23613;-88
2023/01/31 01:09:00;;;;;;;18.50;8.10;;;;;;;0.71;100.00;98298.82;269392;1272;24219;-90
2023/01/31 01:15:02;;;;;;;13.30;7.30;;;;;;;0.61;100.00;98301.73;270449;1272;24016;-88
2023/01/31 01:21:09;;;;;;;20.20;7.90;;;;;;;0.55;100.00;98313.98;272721;1270;22211;-90
2023/01/31 01:27:12;;;;;;;16.50;7.50;;;;;;;0.54;100.00;98319.84;272742;1272;22473;-89
2023/01/31 01:33:16;;;;;;;15.70;8.50;;;;;;;0.59;100.00;98318.42;272935;1265;22213;-90
2023/01/31 01:39:20;;;;;;;23.10;8.20;;;;;;;0.64;100.00;98316.83;272896;1272;24246;-88
2023/01/31 01:45:26;;;;;;;11.20;7.40;;;;;;;0.68;100.00;98319.24;273176;1270;22276;-90
2023/01/31 01:51:29;;;;;;;16.90;6.90;;;;;;;0.69;100.00;98334.23;273158;1272;22338;-88
2023/01/31 01:57:35;;;;;;;13.80;7.40;;;;;;;0.69;100.00;98339.99;272975;1262;22218;-88
2023/01/31 02:03:37;;;;;;;20.50;9.30;;;;;;;0.70;100.00;98349.95;272116;1271;24560;-90
2023/01/31 02:10:01;;;;;;;18.00;8.00;;;;;;;0.72;100.00;98351.20;269316;1272;23267;-89
2023/01/31 02:16:04;;;;;;;21.70;9.50;;;;;;;0.74;100.00;98356.58;270395;1265;24406;-91
2023/01/31 02:22:18;;;;;;;21.00;9.30;;;;;;;0.75;100.00;98367.17;271533;1272;23219;-91
2023/01/31 02:28:38;;;;;;;22.90;9.60;;;;;;;0.76;100.00;98376.58;269876;1270;22611;-90
2023/01/31 02:35:07;;;;;;;25.80;9.60;;;;;;;0.77;100.00;98384.73;270111;1270;23869;-90
2023/01/31 02:41:15;;;;;;;26.00;9.20;;;;;;;0.78;100.00;98393.14;271646;1272;22547;-89
2023/01/31 02:47:35;;;;;;;16.90;6.70;;;;;;;0.78;100.00;98400.77;269658;1272;22501;-89
2023/01/31 02:53:44;;;;;;;16.70;7.00;;;;;;;0.80;100.00;98411.63;270229;1272;23371;-91
2023/01/31 02:59:46;;;;;;;15.30;7.20;;;;;;;0.85;100.00;98415.05;269292;1272;22978;-90
2023/01/31 03:06:09;;;;;;;23.60;8.80;;;;;;;0.86;100.00;98427.64;269472;1272;25459;-89
2023/01/31 03:12:29;;;;;;;18.20;6.20;;;;;;;0.86;100.00;98427.57;270714;1268;22324;-90
2023/01/31 03:18:39;;;;;;;16.80;5.40;;;;;;;0.87;100.00;98447.48;272899;1271;22317;-90
2023/01/31 03:24:43;;;;;;;14.40;4.10;;;;;;;0.91;100.00;98446.85;271943;1270;23578;-91
2023/01/31 03:30:53;;;;;;;23.90;6.90;;;;;;;0.93;100.00;98451.41;269978;1272;42343;-89
2023/01/31 03:37:07;;;;;;;18.30;4.70;;;;;;;0.95;100.00;98458.03;270367;1273;22390;-90
2023/01/31 03:43:26;;;;;;;19.80;4.70;;;;;;;0.96;100.00;98470.08;271977;1272;22378;-91
2023/01/31 03:49:31;;;;;;;16.20;4.10;;;;;;;0.95;100.00;98479.96;272826;1272;22188;-90
2023/01/31 03:55:39;;;;;;;19.30;4.20;;;;;;;0.93;100.00;98485.84;271479;1272;23679;-90
2023/01/31 04:01:48;;;;;;;14.70;3.10;;;;;;;0.94;100.00;98491.64;271721;1272;25390;-91
2023/01/31 04:07:51;;;;;;;19.50;4.00;;;;;;;0.94;100.00;98492.23;269831;1265;22676;-88
2023/01/31 04:13:57;;;;;;;24.10;3.60;;;;;;;0.93;100.00;98505.80;270070;1265;22535;-90
2023/01/31 04:20:04;;;;;;;15.00;3.20;;;;;;;0.92;100.00;98515.65;269490;1272;22981;-87
2023/01/31 04:26:06;;;;;;;10.70;2.60;;;;;;;0.92;100.00;98525.23;272243;1272;23109;-90
2023/01/31 04:32:08;;;;;;;16.50;3.70;;;;;;;0.89;100.00;98529.10;272327;1262;23788;-89
2023/01/31 04:38:13;;;;;;;13.20;2.10;;;;;;;0.82;100.00;98526.17;272545;1272;22652;-89
2023/01/31 04:44:15;;;;;;;10.80;1.50;;;;;;;0.76;100.00;98537.86;270115;1272;25243;-90
2023/01/31 04:50:17;;;;;;;9.40;3.40;;;;;;;0.70;100.00;98550.63;272200;1272;22310;-90
2023/01/31 04:56:19;;;;;;;10.80;3.70;;;;;;;0.62;100.00;98562.87;272306;1272;22367;-91
2023/01/31 05:02:22;;;;;;;16.40;4.40;;;;;;;0.54;100.00;98572.19;270424;1271;22187;-89
2023/01/31 05:08:24;;;;;;;17.40;6.10;;;;;;;0.48;100.00;98588.30;270808;1272;23096;-90
2023/01/31 05:14:26;;;;;;;16.90;5.50;;;;;;;0.44;100.00;98589.95;271641;1272;22183;-90
2023/01/31 05:20:30;;;;;;;15.30;5.00;;;;;;;0.42;100.00;98607.16;272019;1272;23472;-90
2023/01/31 05:26:32;;;;;;;16.60;6.00;;;;;;;0.39;100.00;98616.80;270551;1272;22548;-90
2023/01/31 05:32:35;;;;;;;18.10;6.20;;;;;;;0.35;100.00;98624.33;270089;1272;22355;-88
2023/01/31 05:38:43;;;;;;;15.00;4.20;;;;;;;0.32;100.00;98645.42;270582;1272;22892;-89
2023/01/31 05:44:47;;;;;;;13.80;5.00;;;;;;;0.29;100.00;98645.42;269847;1272;24221;-90
2023/01/31 05:50:49;;;;;;;12.50;3.90;;;;;;;0.26;100.00;98650.24;271558;1273;22234;-89
2023/01/31 05:56:51;;;;;;;11.90;3.80;;;;;;;0.25;100.00;98661.00;271481;1272;22288;-88
2023/01/31 06:02:57;;;;;;;14.00;4.60;;;;;;;0.23;100.00;98672.54;271071;1272;22878;-90
2023/01/31 06:09:01;;;;;;;17.10;4.60;;;;;;;0.24;100.00;98682.51;272547;1272;22241;-91
2023/01/31 06:15:04;;;;;;;14.40;4.70;;;;;;;0.24;100.00;98692.65;272776;1271;22204;-89
2023/01/31 06:21:06;;;;;;;15.10;6.20;;;;;;;0.23;100.00;98708.55;272605;1268;22332;-89
2023/01/31 06:27:07;;;;;;;15.10;4.80;;;;;;;0.22;100.00;98716.02;272155;1272;22349;-92
2023/01/31 06:33:17;;;;;;;13.60;5.40;;;;;;;0.20;100.00;98730.34;270979;1272;22588;-91
2023/01/31 06:39:18;;;;;;;15.60;6.30;;;;;;;0.22;100.00;98742.23;272540;1273;22328;-90
2023/01/31 06:45:21;;;;;;;22.70;8.30;;;;;;;0.25;100.00;98745.64;272600;1272;22269;-90
2023/01/31 06:51:22;;;;;;;31.40;8.80;;;;;;;0.30;100.00;98754.92;272752;1272;22412;-89
2023/01/31 06:57:24;;;;;;;20.70;8.10;;;;;;;0.35;100.00;98763.59;272877;1272;22245;-91
2023/01/31 07:03:26;;;;;;;19.10;6.70;;;;;;;0.39;100.00;98769.52;272519;1272;22545;-91
2023/01/31 07:09:28;;;;;;;17.00;6.50;;;;;;;0.42;100.00;98785.75;271891;1272;22227;-90
2023/01/31 07:15:30;;;;;;;17.80;5.70;;;;;;;0.45;100.00;98798.27;272574;1272;22481;-90
2023/01/31 07:21:32;;;;;;;31.40;8.00;;;;;;;0.48;100.00;98811.48;272704;1271;23111;-89
2023/01/31 07:27:35;;;;;;;20.40;6.00;;;;;;;0.51;100.00;98822.80;272599;1272;23527;-90
2023/01/31 07:33:38;;;;;;;26.70;8.00;;;;;;;0.55;100.00;98835.88;272432;1270;22550;-90
2023/01/31 07:39:39;;;;;;;28.70;8.90;;;;;;;0.60;100.00;98844.63;270693;1272;23756;-89
2023/01/31 07:45:41;;;;;;;18.70;6.80;;;;;;;0.63;100.00;98848.77;271771;1265;23596;-89
2023/01/31 07:51:43;;;;;;;18.40;5.90;;;;;;;0.64;100.00;98852.39;271206;1272;22754;-90
2023/01/31 07:57:45;;;;;;;29.50;8.80;;;;;;;0.67;100.00;98853.43;270167;1272;22376;-90
2023/01/31 08:03:47;;;;;;;32.50;8.60;;;;;;;0.71;100.00;98858.32;272291;1272;22252;-91
2023/01/31 08:09:50;;;;;;;27.00;7.90;;;;;;;0.76;100.00;98863.77;272236;1273;22223;-90
2023/01/31 08:15:52;;;;;;;23.30;7.00;;;;;;;0.81;100.00;98869.66;270786;1272;114986;-87
2023/01/31 08:21:59;;;;;;;19.20;5.50;;;;;;;0.87;100.00;98872.45;272243;1272;25146;-91
2023/01/31 08:28:04;;;;;;;19.70;5.80;;;;;;;0.92;100.00;98878.65;270265;1272;23449;-90
2023/01/31 08:34:08;;;;;;;16.20;5.50;;;;;;;0.97;100.00;98893.71;270729;1272;22560;-91
2023/01/31 08:40:11;;;;;;;29.30;7.30;;;;;;;1.03;100.00;98906.70;271032;1272;22249;-90
2023/01/31 08:46:13;;;;;;;26.60;5.90;;;;;;;1.07;100.00;98909.95;269988;1273;23143;-90
2023/01/31 08:52:18;;;;;;;23.70;6.30;;;;;;;1.13;100.00;98915.66;269717;1272;22254;-89
2023/01/31 08:58:20;;;;;;;24.90;6.00;;;;;;;1.20;100.00;98918.03;270654;1272;22344;-89
2023/01/31 09:04:22;;;;;;;26.30;5.90;;;;;;;1.32;100.00;98922.09;271700;1272;22531;-88
2023/01/31 09:10:23;;;;;;;33.30;7.30;;;;;;;1.43;100.00;98927.02;271055;1272;22412;-90
2023/01/31 09:16:26;;;;;;;20.20;5.10;;;;;;;1.60;100.00;98931.70;272634;1272;22276;-90
2023/01/31 09:22:29;;;;;;;18.90;6.10;;;;;;;1.71;100.00;98937.45;270753;1272;22556;-90
2023/01/31 09:28:31;;;;;;;27.40;7.60;;;;;;;1.73;100.00;98939.50;270585;1272;23174;-90
2023/01/31 09:34:33;;;;;;;23.70;7.00;;;;;;;1.71;100.00;98940.20;272641;1272;23670;-90
2023/01/31 09:40:38;;;;;;;24.80;7.80;;;;;;;1.73;100.00;98936.36;271568;1270;22326;-90
2023/01/31 09:46:44;;;;;;;22.80;6.60;;;;;;;1.77;100.00;98939.02;271327;1272;23250;-89
2023/01/31 09:52:46;;;;;;;24.80;7.20;;;;;;;1.97;100.00;98938.75;271442;1272;22239;-89
2023/01/31 09:58:58;;;;;;;27.50;7.00;;;;;;;2.22;100.00;98938.89;272175;1271;23146;-90
2023/01/31 10:05:13;;;;;;;20.40;7.40;;;;;;;2.35;100.00;98933.12;272826;1271;22300;-88
2023/01/31 10:11:57;;;;;;;;;;;;;;;;;;;;;
2023/01/31 10:18:05;;;;;;;18.40;6.30;;;;;;;2.52;100.00;98938.48;272604;1272;22196;-89
2023/01/31 10:24:20;;;;;;;18.70;5.50;;;;;;;2.80;100.00;98936.73;272383;1272;22423;-91
2023/01/31 10:30:37;;;;;;;25.40;7.60;;;;;;;3.01;100.00;98936.77;272900;1273;22462;-90
2023/01/31 10:36:46;;;;;;;21.60;6.70;;;;;;;2.91;100.00;98926.71;271584;1272;22413;-87
2023/01/31 10:42:59;;;;;;;20.30;6.50;;;;;;;2.75;100.00;98936.27;272906;1272;22200;-90
2023/01/31 10:49:04;;;;;;;21.70;6.80;;;;;;;2.55;100.00;98949.02;272389;1272;22574;-91
2023/01/31 10:55:42;;;;;;;18.80;6.40;;;;;;;2.46;100.00;98954.44;272170;1272;22334;-88
2023/01/31 11:01:44;;;;;;;26.30;7.20;;;;;;;2.42;100.00;98952.27;271610;1272;22436;-89
2023/01/31 11:07:46;;;;;;;29.50;7.20;;;;;;;2.46;100.00;98955.14;270865;1262;23207;-90
2023/01/31 11:14:01;;;;;;;22.60;6.10;;;;;;;2.56;100.00;98946.45;272596;1272;22221;-91
2023/01/31 11:20:05;;;;;;;22.10;6.10;;;;;;;2.68;100.00;98945.23;272662;1270;22574;-87
2023/01/31 11:26:07;;;;;;;20.10;5.70;;;;;;;2.67;100.00;98941.27;271414;1272;22562;-89
2023/01/31 11:32:28;;;;;;;15.40;4.30;;;;;;;2.56;100.00;98947.43;273083;1273;22423;-88
2023/01/31 11:38:30;;;;;;;13.80;3.90;;;;;;;2.57;100.00;98946.80;272673;1272;22226;-90
2023/01/31 11:44:32;;;;;;;16.50;3.40;;;;;;;2.64;100.00;98948.61;272722;1272;23396;-91
2023/01/31 11:50:55;;;;;;;14.50;3.40;;;;;;;2.60;100.00;98945.08;271793;1272;22212;-90
2023/01/31 11:56:59;;;;;;;13.00;3.50;;;;;;;2.43;100.00;98936.80;271768;1272;22685;-90
2023/01/31 12:03:06;;;;;;;18.40;4.60;;;;;;;2.26;100.00;98936.28;270498;1269;23645;-91
2023/01/31 12:09:20;;;;;;;18.60;4.70;;;;;;;2.28;100.00;98930.65;271461;1272;22300;-90
2023/01/31 12:15:22;;;;;;;13.90;4.00;;;;;;;2.45;100.00;98929.08;270062;1272;22548;-90
2023/01/31 12:21:43;;;;;;;16.30;4.90;;;;;;;2.52;100.00;98922.94;270806;1267;22582;-91
2023/01/31 12:28:01;;;;;;;17.50;5.20;;;;;;;2.62;100.00;98909.64;270529;1272;22545;-92
2023/01/31 12:34:10;;;;;;;;;;;;;;;2.92;100.00;98902.13;269567;1272;22526;-89
2023/01/31 12:40:20;;;;;;;11.60;3.40;;;;;;;3.21;100.00;98900.76;270751;1272;23369;-91
2023/01/31 12:46:34;;;;;;;15.00;4.60;;;;;;;3.34;100.00;98896.92;270793;1272;24338;-90
2023/01/31 12:52:48;;;;;;;20.00;4.70;;;;;;;3.34;100.00;98893.77;271315;1272;22592;-90
2023/01/31 12:59:10;;;;;;;21.90;6.30;;;;;;;3.26;100.00;98903.67;270684;1272;22693;-89
2023/01/31 13:05:23;;;;;;;12.90;4.10;;;;;;;2.97;100.00;98904.09;269816;1272;22569;-89
2023/01/31 13:11:34;;;;;;;13.90;4.10;;;;;;;2.71;100.00;98894.02;269201;1272;25310;-88
2023/01/31 13:17:38;;;;;;;23.60;7.10;;;;;;;2.51;100.00;98888.77;271905;1272;22380;-88
2023/01/31 13:23:48;;;;;;;16.50;5.90;;;;;;;2.26;100.00;98888.36;270443;1272;23828;-90
2023/01/31 13:30:10;;;;;;;26.40;7.20;;;;;;;2.20;100.00;98886.20;270379;1272;22562;-90
2023/01/31 13:36:28;;;;;;;28.90;7.30;;;;;;;2.26;100.00;98883.73;270574;1272;22584;-91
2023/01/31 13:42:33;;;;;;;21.90;7.10;;;;;;;2.30;100.00;98875.28;270194;1272;24189;-90
2023/01/31 13:48:46;;;;;;;22.90;6.40;;;;;;;2.34;100.00;98864.84;270366;1272;22541;-90
2023/01/31 13:54:56;;;;;;;25.60;7.60;;;;;;;2.35;100.00;98871.14;270755;1272;22558;-90
2023/01/31 14:01:03;;;;;;;18.30;8.00;;;;;;;2.35;100.00;98872.38;271564;1272;22235;-90
2023/01/31 14:07:11;;;;;;;23.70;7.70;;;;;;;2.32;100.00;98867.56;272924;1272;22845;-90
2023/01/31 14:13:32;;;;;;;22.80;6.60;;;;;;;2.29;100.00;98875.83;270181;1272;22984;-88
2023/01/31 14:19:59;;;;;;;20.70;5.70;;;;;;;2.21;100.00;98873.23;271345;1272;22490;-90
2023/01/31 14:26:01;;;;;;;24.40;6.20;;;;;;;2.12;100.00;98861.64;270291;1272;22600;-90
2023/01/31 14:32:15;;;;;;;19.70;5.60;;;;;;;2.05;100.00;98857.54;269929;1272;22554;-90
2023/01/31 14:38:50;;;;;;;24.00;7.00;;;;;;;2.01;100.00;98868.50;270135;1263;25478;-89
2023/01/31 14:45:14;;;;;;;18.20;5.70;;;;;;;1.96;100.00;98863.20;272426;1272;22359;-90
2023/01/31 14:51:47;;;;;;;22.20;6.10;;;;;;;1.89;100.00;98858.80;272846;1272;22269;-91
2023/01/31 14:57:52;;;;;;;19.20;7.20;;;;;;;1.80;100.00;98852.78;269937;1272;22603;-90
2023/01/31 15:03:57;;;;;;;24.70;7.50;;;;;;;1.70;100.00;98850.36;270917;1272;22632;-90
2023/01/31 15:09:59;;;;;;;20.50;7.40;;;;;;;1.61;100.00;98847.31;269755;1265;22342;-91
2023/01/31 15:16:25;;;;;;;28.00;9.60;;;;;;;1.52;100.00;98845.61;271530;1272;22600;-90
2023/01/31 15:22:34;;;;;;;26.70;9.30;;;;;;;1.41;100.00;98838.64;271368;1272;22771;-91
2023/01/31 15:28:41;;;;;;;28.00;10.50;;;;;;;1.31;100.00;98838.78;271342;1272;22290;-92
2023/01/31 15:35:02;;;;;;;22.10;10.00;;;;;;;1.26;100.00;98843.70;272710;1272;22198;-91
2023/01/31 15:41:10;;;;;;;25.00;9.80;;;;;;;1.22;100.00;98830.79;272700;1272;22322;-91
2023/01/31 15:47:21;;;;;;;31.30;10.80;;;;;;;1.19;100.00;98825.27;272369;1272;22351;-91
2023/01/31 15:53:31;;;;;;;26.80;10.90;;;;;;;1.17;100.00;98824.98;270930;1272;22585;-91
2023/01/31 15:59:33;;;;;;;27.80;10.40;;;;;;;1.16;100.00;98818.67;271324;1272;22210;-91
2023/01/31 16:05:38;;;;;;;26.60;11.10;;;;;;;1.13;100.00;98806.68;271498;1272;22426;-91
2023/01/31 16:11:44;;;;;;;24.70;10.60;;;;;;;1.12;100.00;98802.09;271123;1272;26186;-91
2023/01/31 16:17:50;;;;;;;26.70;10.60;;;;;;;1.10;100.00;98796.52;270857;1272;22604;-90
2023/01/31 16:24:11;;;;;;;22.30;9.30;;;;;;;1.06;100.00;98794.34;270165;1272;23881;-90
2023/01/31 16:30:15;;;;;;;25.10;10.40;;;;;;;0.99;100.00;98792.57;272324;1272;22354;-89
2023/01/31 16:36:23;;;;;;;20.70;8.50;;;;;;;0.90;100.00;98788.86;272096;1272;22245;-90
2023/01/31 16:42:28;;;;;;;28.50;9.80;;;;;;;0.83;100.00;98791.99;271844;1272;22534;-89
2023/01/31 16:48:32;;;;;;;23.30;9.20;;;;;;;0.74;100.00;98791.10;271381;1262;22663;-91
2023/01/31 16:54:59;;;;;;;21.70;10.60;;;;;;;0.69;100.00;98791.25;269856;1272;25306;-88
2023/01/31 17:01:09;;;;;;;;;;;;;;;0.69;100.00;98785.80;269141;1263;22538;-90
2023/01/31 17:07:20;;;;;;;24.50;10.80;;;;;;;0.70;100.00;98784.59;269534;1273;23803;-89
2023/01/31 17:13:25;;;;;;;34.40;12.20;;;;;;;0.71;100.00;98778.27;270814;1272;25392;-89
2023/01/31 17:19:27;;;;;;;24.70;12.50;;;;;;;0.73;100.00;98768.52;271372;1272;23015;-89
2023/01/31 17:25:35;;;;;;;22.90;11.50;;;;;;;0.74;100.00;98764.09;270638;1272;23045;-90
2023/01/31 17:31:37;;;;;;;20.40;10.40;;;;;;;0.74;100.00;98759.71;271005;1272;22574;-89
2023/01/31 17:37:39;;;;;;;25.50;11.60;;;;;;;0.73;100.00;98761.17;271932;1270;22446;-90
2023/01/31 17:43:41;;;;;;;24.90;12.70;;;;;;;0.71;100.00;98761.17;272502;1273;22922;-90
2023/01/31 17:49:43;;;;;;;30.30;13.60;;;;;;;0.68;100.00;98753.18;272828;1272;22629;-91
2023/01/31 17:55:45;;;;;;;30.10;15.00;;;;;;;0.70;100.00;98759.88;271260;1272;22367;-91
2023/01/31 18:01:49;;;;;;;37.10;16.90;;;;;;;0.73;100.00;98758.42;270612;1272;23797;-89
2023/01/31 18:07:51;;;;;;;37.30;18.30;;;;;;;0.77;100.00;98751.17;270916;1272;22541;-89
2023/01/31 18:13:53;;;;;;;32.70;14.00;;;;;;;0.85;100.00;98733.15;270018;1273;22596;-89
2023/01/31 18:19:55;;;;;;;30.50;14.50;;;;;;;0.89;100.00;98719.36;270043;1272;22262;-89
2023/01/31 18:25:57;;;;;;;32.40;14.30;;;;;;;0.93;100.00;98704.52;270401;1272;22584;-90
2023/01/31 18:32:01;;;;;;;23.60;11.90;;;;;;;0.95;100.00;98697.45;270909;1271;22428;-90
2023/01/31 18:38:12;;;;;;;29.30;11.50;;;;;;;0.98;100.00;98697.19;272561;1272;23341;-89
2023/01/31 18:44:14;;;;;;;26.10;12.20;;;;;;;1.03;100.00;98688.68;272801;1272;22331;-88
2023/01/31 18:50:16;;;;;;;35.90;14.00;;;;;;;1.04;100.00;98679.74;272032;1272;23863;-88
2023/01/31 18:56:19;;;;;;;30.10;12.80;;;;;;;1.05;100.00;98672.54;271016;1272;22350;-89
2023/01/31 19:02:21;;;;;;;26.50;11.10;;;;;;;1.04;100.00;98674.50;272591;1272;23001;-89
2023/01/31 19:08:25;;;;;;;32.70;11.00;;;;;;;1.06;100.00;98669.05;272769;1271;23493;-89
2023/01/31 19:14:29;;;;;;;22.40;11.10;;;;;;;1.08;100.00;98659.77;271756;1272;22532;-88
2023/01/31 19:20:31;;;;;;;20.70;9.10;;;;;;;1.10;100.00;98650.16;272298;1272;22379;-88
2023/01/31 19:26:34;;;;;;;18.90;9.40;;;;;;;1.12;100.00;98632.23;272630;1272;22533;-89
2023/01/31 19:32:36;;;;;;;20.80;10.10;;;;;;;1.12;100.00;98623.70;270724;1272;23052;-87
2023/01/31 19:38:39;;;;;;;21.80;9.30;;;;;;;1.13;100.00;98612.02;270347;1272;22568;-88
2023/01/31 19:44:41;;;;;;;19.50;7.80;;;;;;;1.16;100.00;98604.15;270755;1265;23545;-89
2023/01/31 19:50:42;;;;;;;18.90;8.50;;;;;;;1.19;100.00;98593.02;271656;1272;22239;-87
2023/01/31 19:56:44;;;;;;;21.70;8.10;;;;;;;1.22;100.00;98575.34;270961;1272;22576;-89
2023/01/31 20:02:46;;;;;;;13.70;7.90;;;;;;;1.27;100.00;98564.45;270322;1272;22309;-90
2023/01/31 20:08:53;;;;;;;20.60;8.20;;;;;;;1.32;100.00;98566.05;270533;1272;22560;-88
2023/01/31 20:14:55;;;;;;;17.70;6.70;;;;;;;1.38;100.00;98558.27;270417;1272;112461;-89
2023/01/31 20:20:56;;;;;;;15.70;6.80;;;;;;;1.46;100.00;98550.81;269891;1272;22399;-89
2023/01/31 20:26:58;;;;;;;11.50;4.90;;;;;;;1.52;100.00;98546.21;269236;1272;24207;-88
2023/01/31 20:33:00;;;;;;;12.20;6.10;;;;;;;1.57;100.00;98547.70;270336;1267;22567;-89
2023/01/31 20:39:02;;;;;;;25.20;6.50;;;;;;;1.62;100.00;98556.45;272529;1272;22235;-90
2023/01/31 20:45:06;;;;;;;12.40;5.50;;;;;;;1.67;100.00;98554.02;272745;1272;22205;-88
2023/01/31 20:51:08;;;;;;;12.00;5.70;;;;;;;1.71;100.00;98540.16;271929;1272;25361;-87
2023/01/31 20:57:11;;;;;;;17.40;6.30;;;;;;;1.80;100.00;98538.93;270341;1272;22552;-88
2023/01/31 21:03:16;;;;;;;12.30;4.70;;;;;;;1.81;100.00;98541.77;271217;1272;22570;-88
2023/01/31 21:09:18;;;;;;;12.40;5.30;;;;;;;1.82;100.00;98541.04;271639;1272;22568;-88
2023/01/31 21:15:22;;;;;;;15.10;5.80;;;;;;;1.85;100.00;98526.40;270661;1272;22566;-90
2023/01/31 21:21:24;;;;;;;15.10;6.30;;;;;;;1.88;100.00;98511.49;271691;1272;23485;-91
2023/01/31 21:27:26;;;;;;;13.70;6.90;;;;;;;1.92;100.00;98496.45;272823;1272;22431;-90
2023/01/31 21:33:29;;;;;;;13.70;5.30;;;;;;;1.93;100.00;98491.55;271525;1272;22389;-89
2023/01/31 21:39:31;;;;;;;12.40;5.60;;;;;;;1.98;100.00;98489.10;272006;1272;22231;-89
2023/01/31 21:45:38;;;;;;;9.40;5.10;;;;;;;2.02;100.00;98487.85;272908;1272;22204;-91
2023/01/31 21:51:40;;;;;;;11.90;5.40;;;;;;;2.01;100.00;98485.59;272490;1272;22391;-89
2023/01/31 21:57:43;;;;;;;11.60;5.40;;;;;;;2.04;100.00;98475.98;272680;1272;22230;-91
2023/01/31 22:03:47;;;;;;;12.00;5.70;;;;;;;2.08;100.00;98483.23;272747;1271;22249;-91
2023/01/31 22:09:49;;;;;;;15.70;5.40;;;;;;;2.11;100.00;98471.98;272798;1271;22209;-88
2023/01/31 22:15:51;;;;;;;10.00;5.10;;;;;;;2.13;100.00;98464.88;272760;1272;22336;-89
2023/01/31 22:21:52;;;;;;;11.30;4.90;;;;;;;2.11;100.00;98466.58;272759;1272;22372;-89
2023/01/31 22:27:56;;;;;;;10.00;4.50;;;;;;;2.10;100.00;98466.95;272753;1272;22335;-90
2023/01/31 22:34:02;;;;;;;12.30;4.80;;;;;;;2.15;100.00;98459.70;272720;1272;22215;-91
2023/01/31 22:40:04;;;;;;;8.70;4.90;;;;;;;2.19;100.00;98453.91;272670;1272;22318;-89
2023/01/31 22:46:07;;;;;;;9.40;4.90;;;;;;;2.22;100.00;98444.39;272683;1272;22333;-88
2023/01/31 22:52:09;;;;;;;6.00;3.60;;;;;;;2.29;100.00;98441.52;272688;1273;23580;-88
2023/01/31 22:58:11;;;;;;;10.60;5.00;;;;;;;2.35;100.00;98442.73;272838;1271;22974;-88
2023/01/31 23:04:12;;;;;;;14.40;5.90;;;;;;;2.32;100.00;98441.17;271209;1269;22668;-90
2023/01/31 23:10:14;;;;;;;10.50;4.80;;;;;;;2.20;100.00;98442.76;268902;1272;22548;-90
2023/01/31 23:16:19;;;;;;;9.80;5.30;;;;;;;2.08;100.00;98443.58;270597;1272;22186;-90
2023/01/31 23:22:20;;;;;;;11.20;5.70;;;;;;;1.99;100.00;98444.10;272182;1272;22545;-89
2023/01/31 23:28:22;;;;;;;10.80;5.70;;;;;;;1.93;100.00;98446.42;269281;1272;22649;-89
2023/01/31 23:34:24;;;;;;;11.80;6.00;;;;;;;1.88;100.00;98427.88;270863;1272;23293;-90
2023/01/31 23:40:25;;;;;;;27.70;9.40;;;;;;;1.88;100.00;98410.67;271860;1272;22338;-91
2023/01/31 23:46:27;;;;;;;15.30;7.20;;;;;;;1.94;100.00;98408.27;272694;1272;22354;-90
2023/01/31 23:52:29;;;;;;;13.20;6.10;;;;;;;2.01;100.00;98401.84;272795;1272;22334;-91
2023/01/31 23:58:31;;;;;;;9.10;4.60;;;;;;;2.06;100.00;98405.77;270827;1272;22967;-92
